createdAt,value
2024-05-09T00:01:02.446Z,14.63
2024-05-09T00:03:31.871Z,14.46
2024-05-09T00:06:01.893Z,14.42
2024-05-09T00:08:31.594Z,14.67
2024-05-09T00:11:03.854Z,14.85
2024-05-09T00:13:33.667Z,14.49
2024-05-09T00:16:03.136Z,14.56
2024-05-09T00:18:33.424Z,14.58
2024-05-09T00:21:03.177Z,14.57
2024-05-09T00:23:32.969Z,14.54
2024-05-09T00:26:05.106Z,14.12
2024-05-09T00:28:34.469Z,14.61
2024-05-09T00:31:05.028Z,14.80
2024-05-09T00:33:34.455Z,14.39
2024-05-09T00:36:03.949Z,14.85
2024-05-09T00:38:33.624Z,14.74
2024-05-09T00:41:05.662Z,14.39
2024-05-09T00:43:35.349Z,13.97
2024-05-09T00:46:04.819Z,14.15
2024-05-09T00:48:36.699Z,13.94
2024-05-09T00:51:08.580Z,14.46
2024-05-09T00:53:38.746Z,14.34
2024-05-09T00:56:14.980Z,13.95
2024-05-09T00:58:44.846Z,13.69
2024-05-09T01:01:14.357Z,13.81
2024-05-09T01:03:44.814Z,14.43
2024-05-09T01:06:16.123Z,14.71
2024-05-09T01:08:47.964Z,14.64
2024-05-09T01:11:21.443Z,14.08
2024-05-09T01:13:53.444Z,14.37
2024-05-09T01:16:25.618Z,14.35
2024-05-09T01:18:55.066Z,14.32
2024-05-09T01:21:24.524Z,14.10
2024-05-09T01:23:56.442Z,14.17
2024-05-09T01:26:25.892Z,14.20
2024-05-09T01:28:55.325Z,14.09
2024-05-09T01:31:26.453Z,14.40
2024-05-09T01:33:55.920Z,14.13
2024-05-09T01:36:25.408Z,13.98
2024-05-09T01:38:57.436Z,13.78
2024-05-09T01:41:27.220Z,13.92
2024-05-09T01:43:56.866Z,14.29
2024-05-09T01:46:28.667Z,13.97
2024-05-09T01:48:58.942Z,14.25
2024-05-09T01:51:29.128Z,14.07
2024-05-09T01:54:01.174Z,14.07
2024-05-09T01:56:30.766Z,13.96
2024-05-09T01:59:02.865Z,14.34
2024-05-09T02:01:55.359Z,14.22
2024-05-09T02:04:22.984Z,13.72
2024-05-09T02:06:52.573Z,13.94
2024-05-09T02:09:26.992Z,13.66
2024-05-09T02:11:56.558Z,14.23
2024-05-09T02:14:26.255Z,14.24
2024-05-09T02:16:56.208Z,13.91
2024-05-09T02:19:28.013Z,13.79
2024-05-09T02:21:57.464Z,13.79
2024-05-09T02:24:30.557Z,13.39
2024-05-09T02:27:00.192Z,13.91
2024-05-09T02:29:29.853Z,13.40
2024-05-09T02:32:00.601Z,13.45
2024-05-09T02:34:32.300Z,13.45
2024-05-09T02:37:02.398Z,13.70
2024-05-09T02:39:31.718Z,13.55
2024-05-09T02:42:02.875Z,13.36
2024-05-09T02:44:32.567Z,13.58
2024-05-09T02:47:01.916Z,13.23
2024-05-09T02:49:29.124Z,13.02
2024-05-09T02:51:58.641Z,13.30
2024-05-09T02:54:25.454Z,13.32
2024-05-09T02:56:57.460Z,13.52
2024-05-09T02:59:24.386Z,13.57
2024-05-09T03:01:54.181Z,13.36
2024-05-09T03:04:21.185Z,13.24
2024-05-09T03:06:50.654Z,13.14
2024-05-09T03:09:17.464Z,13.29
2024-05-09T03:11:46.990Z,13.53
2024-05-09T03:14:19.195Z,13.78
2024-05-09T03:16:48.718Z,13.17
2024-05-09T03:19:15.973Z,13.01
2024-05-09T03:21:45.424Z,13.13
2024-05-09T03:24:12.367Z,13.58
2024-05-09T03:26:45.437Z,13.69
2024-05-09T03:29:12.265Z,13.12
2024-05-09T03:31:44.525Z,12.83
2024-05-09T03:34:11.667Z,12.69
2024-05-09T03:36:44.002Z,12.82
2024-05-09T03:39:13.526Z,12.43
2024-05-09T03:41:42.975Z,12.63
2024-05-09T03:44:12.608Z,12.95
2024-05-09T03:46:42.945Z,12.63
2024-05-09T03:49:12.516Z,12.72
2024-05-09T03:51:39.370Z,13.15
2024-05-09T03:54:08.689Z,13.21
2024-05-09T03:56:35.551Z,13.26
2024-05-09T03:59:04.955Z,12.92
2024-05-09T04:01:32.186Z,13.06
2024-05-09T04:04:04.310Z,13.55
2024-05-09T04:06:31.033Z,13.10
2024-05-09T04:09:00.357Z,13.26
2024-05-09T04:11:27.128Z,13.36
2024-05-09T04:13:56.632Z,13.42
2024-05-09T04:16:23.454Z,13.67
2024-05-09T04:18:52.904Z,13.58
2024-05-09T04:21:22.294Z,13.63
2024-05-09T04:23:51.640Z,13.21
2024-05-09T04:26:20.951Z,13.80
2024-05-09T04:28:47.731Z,13.91
2024-05-09T04:31:17.153Z,14.20
2024-05-09T04:33:45.536Z,13.73
2024-05-09T04:36:15.144Z,13.44
2024-05-09T04:38:44.457Z,13.30
2024-05-09T04:41:13.882Z,13.79
2024-05-09T04:43:41.050Z,13.66
2024-05-09T04:46:10.378Z,13.88
2024-05-09T04:48:37.337Z,14.21
2024-05-09T04:51:09.368Z,14.30
2024-05-09T04:53:36.266Z,13.80
2024-05-09T04:56:10.399Z,14.16
2024-05-09T04:58:38.320Z,13.89
2024-05-09T05:01:08.614Z,14.40
2024-05-09T05:03:35.985Z,14.31
2024-05-09T05:06:05.662Z,14.76
2024-05-09T05:08:32.638Z,15.00
2024-05-09T05:11:04.585Z,14.53
2024-05-09T05:13:41.345Z,14.16
2024-05-09T05:16:13.984Z,14.84
2024-05-09T05:18:40.973Z,15.46
2024-05-09T05:21:11.144Z,15.78
2024-05-09T05:23:38.431Z,15.54
2024-05-09T05:26:08.278Z,15.77
2024-05-09T05:28:38.628Z,16.08
2024-05-09T05:31:10.520Z,16.89
2024-05-09T05:33:37.395Z,19.87
2024-05-09T05:36:07.163Z,20.92
2024-05-09T05:38:33.865Z,22.92
2024-05-09T05:41:03.239Z,24.31
2024-05-09T05:43:29.967Z,24.88
2024-05-09T05:46:01.833Z,26.12
2024-05-09T05:48:29.347Z,27.19
2024-05-09T05:51:00.428Z,28.04
2024-05-09T05:53:28.610Z,28.51
2024-05-09T05:55:58.057Z,29.45
2024-05-09T05:58:24.860Z,29.33
2024-05-09T06:00:55.908Z,28.96
2024-05-09T06:03:25.487Z,29.57
2024-05-09T06:05:54.937Z,29.20
2024-05-09T06:08:21.911Z,29.80
2024-05-09T06:10:51.641Z,31.03
2024-05-09T06:13:18.686Z,31.70
2024-05-09T06:15:47.968Z,31.80
2024-05-09T06:18:14.985Z,29.94
2024-05-09T06:20:47.143Z,28.75
2024-05-09T06:23:14.376Z,27.75
2024-05-09T06:25:44.329Z,28.14
2024-05-09T06:28:14.252Z,27.77
2024-05-09T06:30:44.393Z,30.81
2024-05-09T06:33:15.455Z,29.23
2024-05-09T06:35:59.609Z,27.75
2024-05-09T06:38:29.049Z,30.56
2024-05-09T06:40:58.931Z,32.99
2024-05-09T06:43:25.988Z,34.43
2024-05-09T06:45:55.355Z,30.51
2024-05-09T06:48:23.469Z,33.22
2024-05-09T06:50:55.551Z,33.50
2024-05-09T06:53:22.729Z,34.69
2024-05-09T06:55:53.110Z,35.96
2024-05-09T06:58:19.884Z,32.89
2024-05-09T07:00:49.290Z,32.01
2024-05-09T07:03:18.490Z,35.05
2024-05-09T07:05:56.421Z,35.37
2024-05-09T07:08:26.119Z,34.16
2024-05-09T07:10:55.712Z,35.43
2024-05-09T07:13:23.583Z,33.33
2024-05-09T07:15:53.379Z,34.93
2024-05-09T07:18:21.010Z,35.39
2024-05-09T07:20:53.571Z,36.50
2024-05-09T07:23:20.861Z,35.49
2024-05-09T07:25:52.773Z,35.70
2024-05-09T07:28:20.986Z,36.30
2024-05-09T07:30:50.556Z,35.44
2024-05-09T07:33:17.555Z,35.09
2024-05-09T07:35:47.566Z,35.71
2024-05-09T07:38:14.883Z,34.68
2024-05-09T07:40:44.314Z,34.91
2024-05-09T07:43:16.432Z,35.39
2024-05-09T07:45:53.190Z,32.54
2024-05-09T07:52:39.355Z,34.24
2024-05-09T07:53:49.808Z,35.55
2024-05-09T07:56:21.737Z,33.41
2024-05-09T07:58:55.648Z,33.99
2024-05-09T08:01:25.880Z,34.30
2024-05-09T08:03:58.577Z,33.87
2024-05-09T08:06:26.051Z,35.50
2024-05-09T08:08:56.000Z,32.29
2024-05-09T08:11:24.860Z,34.35
2024-05-09T08:13:57.161Z,34.91
2024-05-09T08:16:24.278Z,33.61
2024-05-09T08:18:53.693Z,35.74
2024-05-09T08:21:20.442Z,36.01
2024-05-09T08:23:52.649Z,34.97
2024-05-09T08:26:21.005Z,35.41
2024-05-09T08:28:50.295Z,34.37
2024-05-09T08:31:25.687Z,35.96
2024-05-09T08:33:56.526Z,37.47
2024-05-09T08:36:23.568Z,33.54
2024-05-09T08:38:56.707Z,33.91
2024-05-09T08:41:23.643Z,35.76
2024-05-09T08:43:53.039Z,36.90
2024-05-09T08:46:22.388Z,36.81
2024-05-09T08:48:52.707Z,36.32
2024-05-09T08:51:19.596Z,35.05
2024-05-09T08:53:50.725Z,36.51
2024-05-09T08:56:20.356Z,36.58
2024-05-09T08:58:53.687Z,37.38
2024-05-09T09:01:23.825Z,36.05
2024-05-09T09:03:56.644Z,35.98
2024-05-09T09:06:24.642Z,36.64
2024-05-09T09:08:54.301Z,35.56
2024-05-09T09:11:21.120Z,34.73
2024-05-09T09:13:50.689Z,33.17
2024-05-09T09:16:18.835Z,33.22
2024-05-09T09:18:53.541Z,33.21
2024-05-09T09:21:20.306Z,31.87
2024-05-09T09:23:50.134Z,30.76
2024-05-09T09:26:17.199Z,30.14
2024-05-09T09:28:47.424Z,32.11
2024-05-09T09:31:18.136Z,31.97
2024-05-09T09:33:48.730Z,31.52
2024-05-09T09:36:20.902Z,32.79
2024-05-09T09:38:51.659Z,32.44
2024-05-09T09:41:21.056Z,30.66
2024-05-09T09:43:50.809Z,33.92
2024-05-09T09:46:21.109Z,34.96
2024-05-09T09:48:53.460Z,35.75
2024-05-09T09:51:23.586Z,35.88
2024-05-09T09:53:55.282Z,38.33
2024-05-09T09:56:25.292Z,36.48
2024-05-09T09:58:57.122Z,35.30
2024-05-09T10:01:24.979Z,35.36
2024-05-09T10:03:55.683Z,34.77
2024-05-09T10:06:25.406Z,34.32
2024-05-09T10:08:56.446Z,33.07
2024-05-09T10:11:23.900Z,31.60
2024-05-09T10:13:55.038Z,31.56
2024-05-09T10:16:22.377Z,30.98
2024-05-09T10:18:52.172Z,29.77
2024-05-09T10:21:20.014Z,30.03
2024-05-09T10:24:02.612Z,29.16
2024-05-09T10:26:34.216Z,29.62
2024-05-09T10:29:04.577Z,30.26
2024-05-09T10:31:31.510Z,30.47
2024-05-09T10:34:03.394Z,31.04
2024-05-09T10:36:30.488Z,29.96
2024-05-09T10:39:02.582Z,28.54
2024-05-09T10:41:30.581Z,27.16
2024-05-09T10:43:59.959Z,27.57
2024-05-09T10:46:26.915Z,28.35
2024-05-09T10:49:04.201Z,27.39
2024-05-09T10:51:33.123Z,29.05
2024-05-09T10:54:05.460Z,28.89
2024-05-09T10:56:32.161Z,28.01
2024-05-09T10:59:04.456Z,29.58
2024-05-09T11:01:31.511Z,28.26
2024-05-09T11:04:04.090Z,28.28
2024-05-09T11:06:34.021Z,29.01
2024-05-09T11:09:24.257Z,30.20
2024-05-09T11:11:57.028Z,31.86
2024-05-09T11:14:26.644Z,32.72
2024-05-09T11:16:59.364Z,33.07
2024-05-09T11:19:33.280Z,32.81
2024-05-09T11:22:01.969Z,33.73
2024-05-09T11:24:34.770Z,32.36
2024-05-09T11:27:03.096Z,33.07
2024-05-09T11:29:39.840Z,32.39
2024-05-09T11:32:07.769Z,31.67
2024-05-09T11:34:37.374Z,30.98
2024-05-09T11:37:04.756Z,31.56
2024-05-09T11:39:37.046Z,29.87
2024-05-09T11:42:07.554Z,29.75
2024-05-09T11:44:42.684Z,28.27
2024-05-09T11:47:09.691Z,27.51
2024-05-09T11:49:39.729Z,27.75
2024-05-09T11:52:06.744Z,27.47
2024-05-09T11:54:39.768Z,26.84
2024-05-09T11:57:07.164Z,27.92
2024-05-09T11:59:36.454Z,27.44
2024-05-09T12:02:03.681Z,28.03
2024-05-09T12:04:33.316Z,29.02
2024-05-09T12:07:03.315Z,28.05
2024-05-09T12:09:32.939Z,28.10
2024-05-09T12:12:02.337Z,28.23
2024-05-09T12:14:32.012Z,27.86
2024-05-09T12:16:59.312Z,26.86
2024-05-09T12:19:28.992Z,28.51
2024-05-09T12:21:56.370Z,28.79
2024-05-09T12:24:31.238Z,29.03
2024-05-09T12:26:58.670Z,27.60
2024-05-09T12:29:30.716Z,28.18
2024-05-09T12:31:59.010Z,28.97
2024-05-09T12:34:28.445Z,28.89
2024-05-09T12:36:55.289Z,27.08
2024-05-09T12:39:24.866Z,27.54
2024-05-09T12:41:52.107Z,27.75
2024-05-09T12:44:24.183Z,27.82
2024-05-09T12:46:56.337Z,27.52
2024-05-09T12:49:24.420Z,28.02
2024-05-09T12:51:54.081Z,27.81
2024-05-09T12:54:20.878Z,27.89
2024-05-09T12:56:53.123Z,28.04
2024-05-09T12:59:19.916Z,28.43
2024-05-09T13:01:58.775Z,27.88
2024-05-09T13:04:29.760Z,27.02
2024-05-09T13:07:03.138Z,28.37
2024-05-09T13:09:31.322Z,27.95
2024-05-09T13:12:02.726Z,26.54
2024-05-09T13:14:29.480Z,27.82
2024-05-09T13:16:59.215Z,28.10
2024-05-09T13:19:26.093Z,26.20
2024-05-09T13:21:59.052Z,27.33
2024-05-09T13:24:25.943Z,28.16
2024-05-09T13:26:55.271Z,27.85
2024-05-09T13:29:22.129Z,28.12
2024-05-09T13:31:52.800Z,27.50
2024-05-09T13:34:21.479Z,27.96
2024-05-09T13:36:50.904Z,28.04
2024-05-09T13:39:20.682Z,26.29
2024-05-09T13:41:50.052Z,26.63
2024-05-09T13:44:16.887Z,26.54
2024-05-09T13:46:46.674Z,26.65
2024-05-09T13:49:16.916Z,27.53
2024-05-09T13:51:46.572Z,26.51
2024-05-09T13:54:13.697Z,26.78
2024-05-09T13:56:45.616Z,26.93
2024-05-09T13:59:12.285Z,27.08
2024-05-09T14:01:41.678Z,26.62
2024-05-09T14:04:09.957Z,27.32
2024-05-09T14:06:39.661Z,26.88
2024-05-09T14:09:06.513Z,26.49
2024-05-09T14:11:35.953Z,25.73
2024-05-09T14:14:05.331Z,25.04
2024-05-09T14:16:35.206Z,26.79
2024-05-09T14:19:02.259Z,25.90
2024-05-09T14:21:31.969Z,26.32
2024-05-09T14:24:01.457Z,26.41
2024-05-09T14:26:31.011Z,26.75
2024-05-09T14:28:57.742Z,26.68
2024-05-09T14:31:30.084Z,27.08
2024-05-09T14:33:57.139Z,27.23
